Time;durP1;ratioP1;P1;durP2;ratioP2;P2;SDS_P1;SDS_P2;PMS_P1;PMS_P2;Temp;Humidity;BMP_temperature;BMP_pressure;BME280_temperature;BME280_humidity;BME280_pressure;Samples;Min_cycle;Max_cycle;Signal;HPM_P1;HPM_P2
2021/01/25 00:01:20;;;;;;;5.50;2.50;;;19.80;35.70;;;;;;4998330;28;20039;-47
2021/01/25 00:03:47;;;;;;;3.10;2.22;;;19.80;35.80;;;;;;4998607;28;20113;-48
2021/01/25 00:06:12;;;;;;;2.40;2.20;;;19.80;35.80;;;;;;4981143;28;20046;-45
2021/01/25 00:08:38;;;;;;;3.63;2.38;;;19.80;35.70;;;;;;4998281;28;20052;-47
2021/01/25 00:11:04;;;;;;;3.42;2.40;;;19.80;35.70;;;;;;4998107;28;20354;-48
2021/01/25 00:13:29;;;;;;;3.67;2.50;;;19.80;35.70;;;;;;4998363;28;20034;-49
2021/01/25 00:15:54;;;;;;;3.10;2.42;;;19.80;35.70;;;;;;4997990;28;20372;-45
2021/01/25 00:18:20;;;;;;;2.47;2.28;;;19.80;35.70;;;;;;4998141;28;20038;-46
2021/01/25 00:20:45;;;;;;;2.50;2.30;;;19.80;35.70;;;;;;4997827;28;20045;-46
2021/01/25 00:23:11;;;;;;;5.53;2.72;;;19.80;35.70;;;;;;4997615;28;20049;-48
2021/01/25 00:25:36;;;;;;;3.05;2.28;;;19.70;35.70;;;;;;4997960;28;20054;-44
2021/01/25 00:28:02;;;;;;;3.47;2.30;;;19.70;35.70;;;;;;4998130;28;20181;-44
2021/01/25 00:30:28;;;;;;;2.72;2.20;;;19.70;35.70;;;;;;4998151;28;20109;-45
2021/01/25 00:32:53;;;;;;;4.03;2.42;;;19.70;35.70;;;;;;4997885;28;20038;-48
2021/01/25 00:35:19;;;;;;;6.32;2.88;;;19.60;35.60;;;;;;4997671;28;20130;-47
2021/01/25 00:37:44;;;;;;;2.60;2.30;;;19.60;35.70;;;;;;4997769;28;20369;-49
2021/01/25 00:40:10;;;;;;;4.30;2.42;;;19.60;35.60;;;;;;4997455;28;20117;-47
2021/01/25 00:42:36;;;;;;;3.35;2.65;;;19.60;35.70;;;;;;4997821;28;20030;-45
2021/01/25 00:45:05;;;;;;;3.20;2.35;;;19.60;35.70;;;;;;4997907;28;20338;-45
2021/01/25 00:47:31;;;;;;;2.55;2.30;;;19.60;35.70;;;;;;4997543;28;20038;-44
2021/01/25 00:49:56;;;;;;;4.88;2.55;;;19.60;35.70;;;;;;4997978;28;20038;-47
2021/01/25 00:52:22;;;;;;;3.55;2.50;;;19.60;35.80;;;;;;4997189;28;20421;-45
2021/01/25 00:54:47;;;;;;;3.42;2.42;;;19.50;35.70;;;;;;4997068;28;20047;-44
2021/01/25 00:57:13;;;;;;;2.95;2.47;;;19.50;35.70;;;;;;4997042;28;20030;-50
2021/01/25 00:59:38;;;;;;;3.88;2.35;;;19.50;35.70;;;;;;4997569;28;20433;-47
2021/01/25 01:02:04;;;;;;;2.92;2.45;;;19.50;35.70;;;;;;4997319;28;20449;-48
2021/01/25 01:04:29;;;;;;;3.40;2.50;;;19.50;35.70;;;;;;4997224;28;20046;-47
2021/01/25 01:06:55;;;;;;;2.90;2.60;;;19.50;35.70;;;;;;4997061;28;20109;-48
2021/01/25 01:09:20;;;;;;;3.08;2.55;;;19.50;35.70;;;;;;4996147;28;20121;-46
2021/01/25 01:11:46;;;;;;;2.83;2.58;;;19.40;35.70;;;;;;4997314;28;20107;-45
2021/01/25 01:14:11;;;;;;;3.72;2.38;;;19.40;36.40;;;;;;4996664;28;20045;-50
2021/01/25 01:16:37;;;;;;;3.25;2.72;;;19.40;35.70;;;;;;4997151;28;20030;-45
2021/01/25 01:19:03;;;;;;;3.47;2.45;;;19.40;35.70;;;;;;4996960;28;20038;-48
2021/01/25 01:21:28;;;;;;;2.83;2.60;;;19.40;35.70;;;;;;4997651;28;20074;-49
2021/01/25 01:23:53;;;;;;;2.80;2.25;;;19.40;35.70;;;;;;4997351;28;20449;-49
2021/01/25 01:26:19;;;;;;;2.92;2.30;;;19.40;35.70;;;;;;4997005;28;20085;-47
2021/01/25 01:28:45;;;;;;;3.60;2.78;;;19.30;35.60;;;;;;4997336;28;20349;-49
2021/01/25 01:31:10;;;;;;;3.03;2.72;;;19.30;35.70;;;;;;4996943;28;20038;-45
2021/01/25 01:33:36;;;;;;;3.45;2.38;;;19.30;35.70;;;;;;4996845;28;20113;-46
2021/01/25 01:36:03;;;;;;;3.83;2.55;;;19.30;35.70;;;;;;4996684;28;20405;-48
2021/01/25 01:38:28;;;;;;;3.72;3.08;;;19.30;35.70;;;;;;4996621;28;20042;-44
2021/01/25 01:40:57;;;;;;;4.25;3.08;;;19.30;35.70;;;;;;4996772;28;20069;-46
2021/01/25 01:43:22;;;;;;;2.60;2.40;;;19.20;35.70;;;;;;4996727;28;20034;-48
2021/01/25 01:45:48;;;;;;;2.67;2.47;;;19.30;35.70;;;;;;4996556;28;20038;-46
2021/01/25 01:48:14;;;;;;;2.97;2.58;;;19.20;35.70;;;;;;4997013;28;20034;-48
2021/01/25 01:50:40;;;;;;;2.88;2.58;;;19.20;35.70;;;;;;4996305;28;20113;-48
2021/01/25 01:53:05;;;;;;;3.58;2.85;;;19.20;35.70;;;;;;4996705;28;20138;-46
2021/01/25 01:55:31;;;;;;;2.95;2.65;;;19.20;35.70;;;;;;4996145;28;20042;-47
2021/01/25 01:57:56;;;;;;;2.70;2.50;;;19.20;35.70;;;;;;4996542;28;20042;-46
2021/01/25 02:00:22;;;;;;;2.85;2.55;;;19.20;35.70;;;;;;4996213;28;20034;-45
2021/01/25 02:02:48;;;;;;;4.07;2.88;;;19.20;35.80;;;;;;4996180;28;20038;-48
2021/01/25 02:05:14;;;;;;;5.63;3.05;;;19.20;36.40;;;;;;4996112;28;20038;-46
2021/01/25 02:07:44;;;;;;;3.92;2.92;;;19.10;35.70;;;;;;4996472;28;20037;-50
2021/01/25 02:10:12;;;;;;;4.40;2.80;;;19.10;35.70;;;;;;4995691;28;20026;-44
2021/01/25 02:12:38;;;;;;;3.13;2.75;;;19.10;35.70;;;;;;4979184;28;20034;-48
2021/01/25 02:15:05;;;;;;;6.35;2.67;;;19.10;35.70;;;;;;4996260;28;20081;-46
2021/01/25 02:17:30;;;;;;;3.58;2.95;;;19.10;35.70;;;;;;4996239;28;20046;-46
2021/01/25 02:20:11;;;;;;;3.50;2.55;;;19.10;35.70;;;;;;4995479;28;20041;-45
2021/01/25 02:22:37;;;;;;;3.42;2.53;;;19.10;35.70;;;;;;4995995;28;20050;-47
2021/01/25 02:25:29;;;;;;;4.03;2.65;;;19.10;35.70;;;;;;4996148;28;20354;-47
2021/01/25 02:27:55;;;;;;;3.03;2.72;;;19.00;35.70;;;;;;4995941;28;20045;-49
2021/01/25 02:30:21;;;;;;;3.25;2.95;;;19.00;35.70;;;;;;4995934;28;20117;-46
2021/01/25 02:32:47;;;;;;;2.70;2.50;;;19.00;35.70;;;;;;4995724;28;20030;-49
2021/01/25 02:35:16;;;;;;;3.58;2.70;;;19.00;35.70;;;;;;4996333;28;20072;-46
2021/01/25 02:37:44;;;;;;;3.58;2.83;;;19.00;35.70;;;;;;4995948;28;20038;-46
2021/01/25 02:40:12;;;;;;;5.70;2.90;;;19.00;35.70;;;;;;4995743;28;20026;-52
2021/01/25 02:42:40;;;;;;;5.35;2.60;;;19.00;35.70;;;;;;4996099;28;20082;-52
2021/01/25 02:45:06;;;;;;;4.32;2.92;;;19.00;35.70;;;;;;4995867;28;20031;-48
2021/01/25 02:47:33;;;;;;;4.18;2.85;;;19.00;35.70;;;;;;4995544;28;20418;-45
2021/01/25 02:49:59;;;;;;;3.13;2.65;;;18.90;35.70;;;;;;4995780;28;20113;-55
2021/01/25 02:52:25;;;;;;;3.38;2.47;;;18.90;35.70;;;;;;4995458;28;20121;-54
2021/01/25 02:54:50;;;;;;;4.05;2.75;;;18.90;35.70;;;;;;4995604;28;20042;-53
2021/01/25 02:57:17;;;;;;;3.47;2.63;;;18.90;35.70;;;;;;4995653;28;20042;-53
2021/01/25 02:59:43;;;;;;;6.10;3.05;;;18.90;35.70;;;;;;4995790;28;20058;-54
2021/01/25 03:02:09;;;;;;;5.15;3.33;;;18.90;36.40;;;;;;4995216;28;20089;-44
2021/01/25 03:04:37;;;;;;;4.03;2.70;;;18.90;35.70;;;;;;4995547;28;20048;-47
2021/01/25 03:07:03;;;;;;;3.85;2.50;;;18.90;35.70;;;;;;4995436;28;20069;-47
2021/01/25 03:09:29;;;;;;;3.30;2.78;;;18.90;35.70;;;;;;4995441;28;20042;-44
2021/01/25 03:12:01;;;;;;;4.10;2.50;;;18.90;35.70;;;;;;4995695;28;20116;-46
2021/01/25 03:14:27;;;;;;;4.57;3.00;;;18.90;35.70;;;;;;4995340;28;20090;-46
2021/01/25 03:16:52;;;;;;;3.60;2.75;;;18.80;35.60;;;;;;4995333;28;20038;-45
2021/01/25 03:19:18;;;;;;;3.67;2.83;;;18.80;35.60;;;;;;4995333;28;20034;-47
2021/01/25 03:21:49;;;;;;;3.40;2.50;;;18.80;35.70;;;;;;4995285;28;20038;-45
2021/01/25 03:24:15;;;;;;;4.35;2.88;;;18.80;35.70;;;;;;4995323;28;20125;-46
2021/01/25 03:26:41;;;;;;;3.97;2.63;;;18.80;35.70;;;;;;4995280;28;20089;-47
2021/01/25 03:29:07;;;;;;;3.28;2.60;;;18.70;35.60;;;;;;4995236;28;20038;-45
2021/01/25 03:31:33;;;;;;;4.50;3.00;;;18.70;35.60;;;;;;4995584;28;20041;-45
2021/01/25 03:33:59;;;;;;;4.30;3.03;;;18.70;35.60;;;;;;4998672;28;20042;-45
2021/01/25 03:36:25;;;;;;;3.00;2.67;;;18.70;35.60;;;;;;4999194;28;20338;-46
2021/01/25 03:38:50;;;;;;;3.63;2.85;;;18.70;35.60;;;;;;4998615;28;20035;-44
2021/01/25 03:41:16;;;;;;;3.63;2.88;;;18.70;35.60;;;;;;4998793;28;20034;-45
2021/01/25 03:43:41;;;;;;;3.38;2.63;;;18.70;35.60;;;;;;4998755;28;20039;-49
2021/01/25 03:46:07;;;;;;;4.35;3.38;;;18.70;35.60;;;;;;4998694;28;20045;-44
2021/01/25 03:48:32;;;;;;;2.65;2.33;;;18.70;35.70;;;;;;4998922;28;20046;-48
2021/01/25 03:50:58;;;;;;;4.00;2.58;;;18.70;35.70;;;;;;4981559;28;20494;-46
2021/01/25 03:53:23;;;;;;;4.13;2.72;;;18.60;35.60;;;;;;4998400;28;20038;-47
2021/01/25 03:55:48;;;;;;;4.80;3.50;;;18.60;35.60;;;;;;4998156;28;20507;-46
2021/01/25 03:58:14;;;;;;;3.53;2.65;;;18.60;35.60;;;;;;4998558;28;20030;-48
2021/01/25 04:00:39;;;;;;;2.88;2.63;;;18.60;35.60;;;;;;4998496;28;20332;-47
2021/01/25 04:03:05;;;;;;;5.03;3.03;;;18.60;35.70;;;;;;4998578;28;20031;-45
2021/01/25 04:05:31;;;;;;;4.55;2.38;;;18.60;35.70;;;;;;4998434;28;20462;-47
2021/01/25 04:07:56;;;;;;;2.78;2.20;;;18.60;35.70;;;;;;4998772;28;20122;-46
2021/01/25 04:10:22;;;;;;;3.20;2.75;;;18.60;35.70;;;;;;4997981;28;20507;-46
2021/01/25 04:12:47;;;;;;;4.28;3.00;;;18.60;35.70;;;;;;4998508;28;20030;-48
2021/01/25 04:15:13;;;;;;;3.85;2.58;;;18.60;35.70;;;;;;4997996;28;20565;-47
2021/01/25 04:17:39;;;;;;;2.97;2.45;;;18.50;36.30;;;;;;4998486;28;20117;-51
2021/01/25 04:20:07;;;;;;;2.53;2.20;;;18.60;35.70;;;;;;4997888;28;20441;-44
2021/01/25 04:22:33;;;;;;;3.03;2.50;;;18.50;35.60;;;;;;4998403;28;20453;-45
2021/01/25 04:24:58;;;;;;;3.58;2.75;;;18.50;35.60;;;;;;4997602;28;20050;-47
2021/01/25 04:27:24;;;;;;;2.80;2.47;;;18.50;35.60;;;;;;4997960;28;20463;-45
2021/01/25 04:29:50;;;;;;;4.07;2.95;;;18.50;35.60;;;;;;4997915;28;20365;-45
2021/01/25 04:32:15;;;;;;;3.20;2.80;;;18.50;35.60;;;;;;4997848;28;20108;-45
2021/01/25 04:34:41;;;;;;;5.70;2.80;;;18.50;35.60;;;;;;4998102;28;20042;-49
2021/01/25 04:37:07;;;;;;;3.47;2.80;;;18.50;35.60;;;;;;4997843;28;20065;-47
2021/01/25 04:39:32;;;;;;;3.60;2.55;;;18.50;35.70;;;;;;4997716;28;20034;-49
2021/01/25 04:41:58;;;;;;;3.25;2.75;;;18.50;35.70;;;;;;4997433;28;20404;-46
2021/01/25 04:44:23;;;;;;;3.08;2.53;;;18.40;35.60;;;;;;4997446;28;20050;-47
2021/01/25 04:46:49;;;;;;;4.45;2.70;;;18.40;35.60;;;;;;4997870;28;20429;-46
2021/01/25 04:49:15;;;;;;;3.38;2.75;;;18.40;35.60;;;;;;4997936;28;20031;-49
2021/01/25 04:51:42;;;;;;;3.58;2.97;;;18.40;35.60;;;;;;4997510;28;20045;-48
2021/01/25 04:54:09;;;;;;;4.75;2.90;;;18.40;35.70;;;;;;4997622;28;20429;-47
2021/01/25 04:56:35;;;;;;;3.33;2.90;;;18.40;35.70;;;;;;4997497;28;20027;-44
2021/01/25 04:59:01;;;;;;;3.58;2.80;;;18.40;35.60;;;;;;4997332;28;20081;-46
2021/01/25 05:01:27;;;;;;;2.88;2.60;;;18.40;35.70;;;;;;4997434;28;20441;-48
2021/01/25 05:03:53;;;;;;;4.13;3.30;;;18.40;35.70;;;;;;4997042;28;20054;-45
2021/01/25 05:06:19;;;;;;;4.65;2.97;;;18.40;35.70;;;;;;4997512;28;20037;-50
2021/01/25 05:08:45;;;;;;;3.35;2.53;;;18.30;35.60;;;;;;4997151;28;20113;-48
2021/01/25 05:11:18;;;;;;;3.80;2.95;;;18.40;35.70;;;;;;4997484;28;20065;-46
2021/01/25 05:13:44;;;;;;;3.25;2.92;;;18.30;35.60;;;;;;4996945;28;20498;-46
2021/01/25 05:16:20;;;;;;;3.53;2.88;;;18.30;35.60;;;;;;4997198;28;20046;-45
2021/01/25 05:18:56;;;;;;;3.53;2.60;;;18.30;35.60;;;;;;4997025;28;20121;-49
2021/01/25 05:21:30;;;;;;;3.70;2.85;;;18.30;35.60;;;;;;4997137;28;20026;-46
2021/01/25 05:24:04;;;;;;;3.08;2.42;;;18.30;35.60;;;;;;4997023;28;20449;-48
2021/01/25 05:26:29;;;;;;;4.13;2.67;;;18.30;35.60;;;;;;4997201;28;20038;-46
2021/01/25 05:28:55;;;;;;;4.18;2.90;;;18.30;35.60;;;;;;4996602;28;20334;-47
2021/01/25 05:31:25;;;;;;;2.65;2.42;;;18.20;35.60;;;;;;4996870;28;20038;-47
2021/01/25 05:33:51;;;;;;;4.55;2.70;;;18.20;35.60;;;;;;4997125;28;20050;-45
2021/01/25 05:36:25;;;;;;;2.97;2.67;;;18.20;35.60;;;;;;4996764;28;20053;-45
2021/01/25 05:38:52;;;;;;;3.42;2.72;;;18.20;35.60;;;;;;4996706;28;20429;-47
2021/01/25 05:41:18;;;;;;;3.13;2.60;;;18.20;35.60;;;;;;4996767;28;20030;-44
2021/01/25 05:43:45;;;;;;;3.15;2.75;;;18.20;35.60;;;;;;4996274;28;20106;-46
2021/01/25 05:46:12;;;;;;;3.97;2.83;;;18.20;35.60;;;;;;4996088;28;20469;-44
2021/01/25 05:48:39;;;;;;;4.07;2.70;;;18.20;35.60;;;;;;4996173;28;20469;-51
2021/01/25 05:51:18;;;;;;;3.85;2.75;;;18.20;35.60;;;;;;4996194;28;20037;-46
2021/01/25 05:53:46;;;;;;;4.43;3.05;;;18.20;35.60;;;;;;4996570;28;20073;-48
2021/01/25 05:56:13;;;;;;;4.05;2.67;;;18.10;35.50;;;;;;4995862;28;20057;-48
2021/01/25 05:58:39;;;;;;;3.53;3.13;;;18.10;35.60;;;;;;4996194;28;20053;-45
2021/01/25 06:01:06;;;;;;;3.20;2.75;;;18.10;35.60;;;;;;4996278;28;20335;-47
2021/01/25 06:03:38;;;;;;;4.65;2.75;;;18.10;35.50;;;;;;4996281;28;20503;-50
2021/01/25 06:06:12;;;;;;;3.38;2.65;;;18.10;35.50;;;;;;4996138;28;20038;-50
2021/01/25 06:08:47;;;;;;;3.88;3.08;;;18.10;35.50;;;;;;4995981;28;20044;-48
2021/01/25 06:11:23;;;;;;;3.83;2.83;;;18.10;35.50;;;;;;4996388;28;20092;-45
2021/01/25 06:14:12;;;;;;;3.42;2.70;;;18.10;35.50;;;;;;4996480;28;20042;-49
2021/01/25 06:16:38;;;;;;;3.70;2.97;;;18.10;35.50;;;;;;4995687;28;20438;-47
2021/01/25 06:19:06;;;;;;;3.85;2.92;;;18.00;35.40;;;;;;4996236;28;20074;-48
2021/01/25 06:21:33;;;;;;;3.40;2.75;;;18.00;35.40;;;;;;4996132;28;20049;-50
2021/01/25 06:24:04;;;;;;;3.00;2.70;;;18.00;35.40;;;;;;4996002;28;20049;-47
2021/01/25 06:26:30;;;;;;;3.90;3.10;;;18.00;35.40;;;;;;4995819;28;20035;-49
2021/01/25 06:29:03;;;;;;;3.45;3.15;;;18.00;35.50;;;;;;4996008;28;20108;-51
2021/01/25 06:31:37;;;;;;;4.38;2.95;;;18.00;35.40;;;;;;4995938;28;20038;-49
2021/01/25 06:34:04;;;;;;;3.20;2.90;;;18.00;35.50;;;;;;4995548;28;20412;-48
2021/01/25 06:36:33;;;;;;;4.78;2.80;;;18.00;35.40;;;;;;4995522;28;20453;-45
2021/01/25 06:39:00;;;;;;;3.15;2.83;;;18.00;35.40;;;;;;4996275;28;20031;-47
2021/01/25 06:41:34;;;;;;;4.30;3.05;;;18.00;35.50;;;;;;4995776;28;20081;-48
2021/01/25 06:44:00;;;;;;;3.50;2.95;;;17.90;35.40;;;;;;4995348;28;20034;-49
2021/01/25 06:46:25;;;;;;;3.08;2.78;;;17.90;35.40;;;;;;4995942;28;20311;-45
2021/01/25 06:48:52;;;;;;;5.50;2.92;;;17.90;35.40;;;;;;4995206;28;20092;-46
2021/01/25 06:51:19;;;;;;;4.43;3.35;;;17.90;35.40;;;;;;4995760;28;20064;-47
2021/01/25 06:53:49;;;;;;;3.90;3.15;;;17.90;35.50;;;;;;4995764;28;20031;-50
2021/01/25 06:56:15;;;;;;;3.33;3.00;;;17.90;35.50;;;;;;4978446;28;20496;-46
2021/01/25 06:58:46;;;;;;;3.58;3.20;;;17.90;35.40;;;;;;4995648;28;20063;-44
2021/01/25 07:01:12;;;;;;;3.88;3.15;;;17.90;35.40;;;;;;4995533;28;20077;-49
2021/01/25 07:03:53;;;;;;;4.13;3.38;;;17.90;35.40;;;;;;4995451;28;20035;-47
2021/01/25 07:06:19;;;;;;;3.03;2.60;;;17.90;35.40;;;;;;4997349;28;20325;-49
2021/01/25 07:08:57;;;;;;;3.25;2.55;;;17.90;35.50;;;;;;4999433;28;20049;-44
2021/01/25 07:11:25;;;;;;;3.00;2.70;;;17.90;35.50;;;;;;4999532;28;20160;-48
2021/01/25 07:13:52;;;;;;;3.00;2.70;;;17.90;35.50;;;;;;4999218;28;20057;-44
2021/01/25 07:16:18;;;;;;;3.15;2.70;;;17.90;35.50;;;;;;4999097;28;20050;-47
2021/01/25 07:18:43;;;;;;;3.65;2.70;;;17.90;35.50;;;;;;4999326;28;20045;-48
2021/01/25 07:21:12;;;;;;;3.97;3.00;;;17.90;35.50;;;;;;4999442;28;20038;-46
2021/01/25 07:23:41;;;;;;;4.13;2.83;;;17.90;36.10;;;;;;4999214;28;20142;-48
2021/01/25 07:26:09;;;;;;;2.97;2.70;;;17.90;35.40;;;;;;4998824;28;20461;-45
2021/01/25 07:28:34;;;;;;;4.65;2.97;;;18.00;35.50;;;;;;4999436;28;20062;-48
2021/01/25 07:31:00;;;;;;;3.17;2.58;;;18.00;35.40;;;;;;4999007;28;20073;-44
2021/01/25 07:33:26;;;;;;;3.50;2.88;;;18.00;35.30;;;;;;4999054;28;20326;-46
2021/01/25 07:35:53;;;;;;;3.50;3.20;;;18.00;35.30;;;;;;4998861;28;20453;-44
2021/01/25 07:38:20;;;;;;;8.55;2.90;;;18.00;35.40;;;;;;4998631;28;20066;-48
2021/01/25 07:40:47;;;;;;;4.07;3.08;;;18.00;35.60;;;;;;4998779;28;20065;-49
2021/01/25 07:43:18;;;;;;;4.05;2.97;;;18.00;35.70;;;;;;4998736;28;20034;-51
2021/01/25 07:45:44;;;;;;;6.97;2.78;;;18.00;35.80;;;;;;4998426;28;20030;-49
2021/01/25 07:48:11;;;;;;;4.18;2.40;;;18.00;35.90;;;;;;4999043;28;20038;-49
2021/01/25 07:50:38;;;;;;;7.35;2.75;;;18.00;36.00;;;;;;5167809;23;20491;-46
2021/01/25 07:53:06;;;;;;;3.17;2.22;;;18.00;36.50;;;;;;4997880;28;20455;-45
2021/01/25 07:55:37;;;;;;;7.25;3.15;;;18.00;36.50;;;;;;4998533;28;20053;-50
2021/01/25 07:58:06;;;;;;;3.38;2.42;;;18.00;36.70;;;;;;4998712;28;20038;-46
2021/01/25 08:00:32;;;;;;;3.50;2.30;;;18.10;36.80;;;;;;4998137;28;20038;-50
2021/01/25 08:03:05;;;;;;;5.68;2.50;;;18.10;36.80;;;;;;4998222;28;20208;-46
2021/01/25 08:05:31;;;;;;;2.88;2.05;;;18.10;36.90;;;;;;4998324;28;20066;-48
2021/01/25 08:07:57;;;;;;;2.85;2.03;;;18.10;37.00;;;;;;4981077;28;20361;-47
2021/01/25 08:10:23;;;;;;;2.33;1.80;;;18.20;37.00;;;;;;4998689;28;20030;-46
2021/01/25 08:12:49;;;;;;;2.45;2.00;;;18.20;37.10;;;;;;4998508;28;20048;-49
2021/01/25 08:15:21;;;;;;;5.18;2.13;;;18.20;37.10;;;;;;4997574;28;20129;-48
2021/01/25 08:17:56;;;;;;;4.35;2.35;;;18.30;37.30;;;;;;4997357;28;20047;-51
2021/01/25 08:20:26;;;;;;;3.30;2.30;;;18.30;37.50;;;;;;5017215;28;20034;-48
2021/01/25 08:23:16;;;;;;;3.10;2.10;;;18.30;37.40;;;;;;5017642;28;20026;-49
2021/01/25 08:25:41;;;;;;;5.80;2.08;;;18.40;37.40;;;;;;5017254;28;20436;-45
2021/01/25 08:28:16;;;;;;;3.17;1.98;;;18.40;37.30;;;;;;5017377;28;20088;-53
2021/01/25 08:30:47;;;;;;;6.68;2.20;;;18.40;37.20;;;;;;5017589;28;20400;-47
2021/01/25 08:33:24;;;;;;;3.88;1.70;;;18.50;37.20;;;;;;5014885;28;20048;-50
2021/01/25 08:35:50;;;;;;;3.00;2.53;;;18.50;37.10;;;;;;5017008;28;20042;-49
2021/01/25 08:38:37;;;;;;;3.72;2.00;;;18.50;37.10;;;;;;5016393;28;20052;-48
2021/01/25 08:41:17;;;;;;;2.67;1.85;;;18.60;37.10;;;;;;4983232;28;20341;-48
2021/01/25 08:43:55;;;;;;;2.80;2.05;;;18.60;37.10;;;;;;5016803;28;20026;-47
2021/01/25 08:46:28;;;;;;;4.72;2.30;;;18.60;37.00;;;;;;5014416;28;20113;-49
2021/01/25 08:48:54;;;;;;;1.92;1.77;;;18.70;37.00;;;;;;5016856;28;20059;-44
2021/01/25 08:51:30;;;;;;;2.22;1.83;;;18.70;37.00;;;;;;5017293;28;20045;-46
2021/01/25 08:54:22;;;;;;;3.40;2.17;;;18.70;36.90;;;;;;5016884;28;20062;-49
2021/01/25 08:56:48;;;;;;;2.13;1.73;;;18.80;36.90;;;;;;5005749;28;20042;-46
2021/01/25 08:59:26;;;;;;;2.90;2.63;;;18.80;36.90;;;;;;4997270;28;20159;-46
2021/01/25 09:01:53;;;;;;;3.22;2.47;;;18.90;37.20;;;;;;4997446;28;20043;-49
2021/01/25 09:04:19;;;;;;;2.30;2.10;;;18.80;37.00;;;;;;4997286;28;20042;-47
2021/01/25 09:06:51;;;;;;;2.28;2.00;;;18.90;37.00;;;;;;4996828;28;20027;-46
2021/01/25 09:09:18;;;;;;;4.53;2.08;;;18.90;37.60;;;;;;4997322;28;20034;-49
2021/01/25 09:11:44;;;;;;;3.58;2.25;;;19.00;37.00;;;;;;4996259;28;20034;-51
2021/01/25 09:14:10;;;;;;;2.35;1.70;;;19.00;37.00;;;;;;4996785;28;20030;-44
2021/01/25 09:16:36;;;;;;;3.25;2.38;;;19.10;37.00;;;;;;4996706;28;20061;-49
2021/01/25 09:19:01;;;;;;;2.22;2.03;;;19.10;37.00;;;;;;4997040;28;20113;-44
2021/01/25 09:21:27;;;;;;;1.60;1.50;;;19.10;36.90;;;;;;4996505;28;20353;-52
2021/01/25 09:23:52;;;;;;;2.72;1.75;;;19.10;36.90;;;;;;4996786;28;20045;-47
2021/01/25 09:26:18;;;;;;;2.38;2.08;;;19.20;36.90;;;;;;4996297;28;20034;-48
2021/01/25 09:28:43;;;;;;;2.78;1.95;;;19.20;36.90;;;;;;4996399;28;20038;-48
2021/01/25 09:31:09;;;;;;;2.72;2.03;;;19.20;36.90;;;;;;4995866;28;20329;-46
2021/01/25 09:33:35;;;;;;;2.17;1.98;;;19.20;36.90;;;;;;4996479;28;20381;-52
2021/01/25 09:36:00;;;;;;;2.72;1.90;;;19.30;37.00;;;;;;4996151;28;20380;-48
2021/01/25 09:38:25;;;;;;;2.30;1.95;;;19.30;36.90;;;;;;4996439;28;20031;-53
2021/01/25 09:40:51;;;;;;;2.65;2.17;;;19.30;36.90;;;;;;4996010;28;20030;-49
2021/01/25 09:43:16;;;;;;;2.72;1.85;;;19.30;36.90;;;;;;4996447;28;20041;-48
2021/01/25 09:45:42;;;;;;;2.30;2.10;;;19.40;36.90;;;;;;4996175;28;20077;-49
2021/01/25 09:48:08;;;;;;;6.05;1.98;;;19.40;36.90;;;;;;4996220;28;20134;-45
2021/01/25 09:50:40;;;;;;;2.13;1.92;;;19.40;36.90;;;;;;5071967;28;20376;-48
2021/01/25 09:53:06;;;;;;;3.33;2.10;;;19.40;36.80;;;;;;5071677;28;20039;-52
2021/01/25 09:55:31;;;;;;;2.47;2.20;;;19.40;36.80;;;;;;5072305;28;20067;-48
2021/01/25 09:57:57;;;;;;;2.08;1.80;;;19.50;36.90;;;;;;5072511;28;20024;-47
2021/01/25 10:00:23;;;;;;;2.30;2.10;;;19.50;36.90;;;;;;5071729;28;20032;-47
2021/01/25 10:02:48;;;;;;;2.35;1.60;;;19.50;36.80;;;;;;5072165;28;20028;-51
2021/01/25 10:05:15;;;;;;;3.28;1.80;;;19.50;36.80;;;;;;5071283;28;20021;-49
2021/01/25 10:07:41;;;;;;;2.13;1.70;;;19.60;36.80;;;;;;5072082;28;20024;-49
2021/01/25 10:10:12;;;;;;;2.00;1.70;;;19.60;36.80;;;;;;5071672;28;20037;-45
2021/01/25 10:12:37;;;;;;;2.42;2.08;;;19.60;36.80;;;;;;5071435;28;20159;-48
2021/01/25 10:15:05;;;;;;;2.13;1.92;;;19.70;36.90;;;;;;5071764;28;20071;-50
2021/01/25 10:17:30;;;;;;;2.58;2.20;;;19.70;36.90;;;;;;5071493;28;20448;-48
2021/01/25 10:19:56;;;;;;;2.90;1.77;;;19.80;37.00;;;;;;5071500;28;20056;-49
2021/01/25 10:22:22;;;;;;;2.15;1.45;;;19.80;37.00;;;;;;5071458;28;20020;-47
2021/01/25 10:24:48;;;;;;;2.03;1.60;;;19.80;37.00;;;;;;5071463;28;20040;-48
2021/01/25 10:27:14;;;;;;;3.38;1.90;;;19.80;37.00;;;;;;5071464;28;20086;-54
2021/01/25 10:29:39;;;;;;;2.20;1.98;;;19.90;37.00;;;;;;5071567;28;20116;-55
2021/01/25 10:32:05;;;;;;;2.05;1.85;;;19.90;37.00;;;;;;5071159;28;20035;-54
2021/01/25 10:34:30;;;;;;;1.77;1.67;;;20.00;37.10;;;;;;5070058;28;20021;-54
2021/01/25 10:36:56;;;;;;;2.13;1.90;;;20.00;37.10;;;;;;5071778;28;20540;-55
2021/01/25 10:39:21;;;;;;;2.15;1.50;;;20.00;37.10;;;;;;5071696;28;20025;-48
2021/01/25 10:41:47;;;;;;;2.15;1.60;;;20.10;37.10;;;;;;5071260;28;20474;-50
2021/01/25 10:44:15;;;;;;;2.72;1.63;;;20.10;37.10;;;;;;5071559;28;20040;-49
2021/01/25 10:46:42;;;;;;;1.75;1.60;;;20.10;37.10;;;;;;5070999;28;20024;-52
2021/01/25 10:49:08;;;;;;;1.98;1.58;;;20.20;37.10;;;;;;5078212;28;20117;-46
2021/01/25 10:51:33;;;;;;;2.30;1.85;;;20.20;37.10;;;;;;5091602;28;20475;-51
2021/01/25 10:53:59;;;;;;;2.03;1.60;;;20.30;37.10;;;;;;5090951;28;20028;-46
2021/01/25 10:56:25;;;;;;;2.70;1.23;;;20.30;37.10;;;;;;5091371;28;20024;-50
2021/01/25 10:58:50;;;;;;;2.00;1.65;;;20.30;37.10;;;;;;5090951;28;20058;-45
2021/01/25 11:01:16;;;;;;;1.80;1.42;;;20.40;37.20;;;;;;5081595;28;20042;-52
2021/01/25 11:03:41;;;;;;;1.48;1.38;;;20.40;37.10;;;;;;5077019;28;20024;-50
2021/01/25 11:06:07;;;;;;;4.50;1.98;;;20.40;37.10;;;;;;5077347;28;20020;-49
2021/01/25 11:08:32;;;;;;;1.80;1.60;;;20.40;37.50;;;;;;5077715;28;20039;-49
2021/01/25 11:10:58;;;;;;;1.77;1.35;;;20.50;37.50;;;;;;5077463;28;20425;-45
2021/01/25 11:13:23;;;;;;;4.05;1.45;;;20.50;37.60;;;;;;5077329;28;20082;-51
2021/01/25 11:15:49;;;;;;;2.28;1.50;;;20.50;37.70;;;;;;5077513;28;20024;-46
2021/01/25 11:18:14;;;;;;;2.97;1.60;;;20.60;37.80;;;;;;5077095;28;20040;-47
2021/01/25 11:20:40;;;;;;;3.92;1.50;;;20.60;37.90;;;;;;5077754;28;20052;-46
2021/01/25 11:23:05;;;;;;;5.45;1.67;;;20.60;37.90;;;;;;5077659;28;20354;-51
2021/01/25 11:25:31;;;;;;;3.85;1.55;;;20.70;38.00;;;;;;5076830;28;20355;-48
2021/01/25 11:27:56;;;;;;;2.17;1.10;;;20.70;38.10;;;;;;5076797;28;20017;-51
2021/01/25 11:30:22;;;;;;;4.20;1.30;;;20.70;38.10;;;;;;5059556;28;20115;-50
2021/01/25 11:32:48;;;;;;;3.90;1.60;;;20.70;38.20;;;;;;5076876;28;20043;-52
2021/01/25 11:35:14;;;;;;;1.75;1.13;;;20.70;38.20;;;;;;5076692;28;20025;-47
2021/01/25 11:37:40;;;;;;;2.20;1.50;;;20.70;38.30;;;;;;5076729;28;20442;-47
2021/01/25 11:40:07;;;;;;;3.05;1.10;;;20.80;38.30;;;;;;5076878;28;20032;-51
2021/01/25 11:42:33;;;;;;;2.40;1.00;;;20.80;38.40;;;;;;5076943;28;20038;-47
2021/01/25 11:44:58;;;;;;;2.63;1.65;;;20.80;38.40;;;;;;5076876;28;20338;-46
2021/01/25 11:47:24;;;;;;;1.77;1.30;;;20.80;38.50;;;;;;5076591;28;20032;-47
2021/01/25 11:49:49;;;;;;;4.30;1.88;;;20.80;39.30;;;;;;5076992;28;20064;-52
2021/01/25 11:52:15;;;;;;;2.80;1.40;;;20.80;38.70;;;;;;5077161;28;20320;-51
2021/01/25 11:54:40;;;;;;;2.08;1.15;;;20.80;38.60;;;;;;5076672;28;20131;-45
2021/01/25 11:57:06;;;;;;;2.63;1.10;;;20.90;38.60;;;;;;5076390;28;20027;-47
2021/01/25 11:59:32;;;;;;;3.05;1.25;;;20.90;38.60;;;;;;5076232;28;20024;-44
2021/01/25 12:01:57;;;;;;;2.33;0.93;;;20.90;38.50;;;;;;5076364;28;20025;-47
2021/01/25 12:04:23;;;;;;;1.88;1.33;;;20.90;38.50;;;;;;5076335;28;20469;-44
2021/01/25 12:06:52;;;;;;;3.65;1.58;;;20.90;38.50;;;;;;5076850;28;20104;-47
2021/01/25 12:09:19;;;;;;;2.05;0.90;;;20.90;38.40;;;;;;5076316;28;20120;-49
2021/01/25 12:11:44;;;;;;;1.33;0.95;;;20.90;38.40;;;;;;5075757;28;20028;-50
2021/01/25 12:14:10;;;;;;;1.55;1.20;;;20.90;38.40;;;;;;5075833;28;20028;-48
2021/01/25 12:16:37;;;;;;;1.08;0.90;;;20.90;38.30;;;;;;5076328;28;20016;-45
2021/01/25 12:19:02;;;;;;;1.83;0.80;;;20.90;38.30;;;;;;5076173;28;20472;-47
2021/01/25 12:21:28;;;;;;;2.75;1.35;;;20.90;38.30;;;;;;5076450;28;20025;-46
2021/01/25 12:23:55;;;;;;;4.18;1.52;;;20.90;38.30;;;;;;5076216;28;20052;-49
2021/01/25 12:26:21;;;;;;;2.58;1.20;;;21.00;38.30;;;;;;5075817;28;20350;-45
2021/01/25 12:28:46;;;;;;;2.08;1.02;;;21.00;38.30;;;;;;5075937;28;20115;-47
2021/01/25 12:31:12;;;;;;;2.22;1.00;;;21.00;38.30;;;;;;5076204;28;20032;-46
2021/01/25 12:33:37;;;;;;;2.35;1.02;;;20.90;38.20;;;;;;5075888;28;20104;-49
2021/01/25 12:36:03;;;;;;;4.15;1.30;;;21.00;38.30;;;;;;5075923;28;20070;-45
2021/01/25 12:38:29;;;;;;;1.20;1.10;;;20.90;38.10;;;;;;5075868;28;20324;-45
2021/01/25 12:40:54;;;;;;;1.77;1.20;;;21.00;38.20;;;;;;5076326;28;20024;-47
2021/01/25 12:43:20;;;;;;;1.40;0.88;;;21.00;38.20;;;;;;5076151;28;20012;-49
2021/01/25 12:45:46;;;;;;;1.90;1.00;;;21.00;38.10;;;;;;5075991;28;20103;-47
2021/01/25 12:48:11;;;;;;;2.10;1.23;;;21.00;38.10;;;;;;5075683;28;20170;-47